createdAt,value
2023-02-17T00:04:45.683Z,78.35
2023-02-17T00:09:47.718Z,77.90
2023-02-17T00:14:49.844Z,77.78
2023-02-17T00:19:55.129Z,77.82
2023-02-17T00:24:57.136Z,77.39
2023-02-17T00:29:59.297Z,77.66
2023-02-17T00:35:01.391Z,77.83
2023-02-17T00:40:03.672Z,77.77
2023-02-17T00:45:06.189Z,77.93
2023-02-17T00:50:08.627Z,78.13
2023-02-17T00:55:10.713Z,78.16
2023-02-17T01:00:13.331Z,78.04
2023-02-17T01:05:15.449Z,77.66
2023-02-17T01:10:17.803Z,77.67
2023-02-17T01:15:19.937Z,78.12
2023-02-17T01:20:22.085Z,77.59
2023-02-17T01:25:24.146Z,78.18
2023-02-17T01:30:26.227Z,78.21
2023-02-17T01:35:28.326Z,78.41
2023-02-17T01:40:30.635Z,78.57
2023-02-17T01:45:36.564Z,78.59
2023-02-17T01:50:52.389Z,78.72
2023-02-17T01:55:55.468Z,78.84
2023-02-17T02:06:18.546Z,78.78
2023-02-17T02:11:20.838Z,78.75
2023-02-17T02:16:58.340Z,78.58
2023-02-17T02:23:05.086Z,78.64
2023-02-17T02:28:34.754Z,78.66
2023-02-17T02:33:45.503Z,78.50
2023-02-17T02:38:52.164Z,78.75
2023-02-17T02:43:54.390Z,78.91
2023-02-17T02:48:56.420Z,78.94
2023-02-17T02:54:11.206Z,78.81
2023-02-17T02:59:27.813Z,78.84
2023-02-17T03:04:37.257Z,78.51
2023-02-17T03:09:39.868Z,79.34
2023-02-17T03:14:43.685Z,79.06
2023-02-17T03:19:48.718Z,79.35
2023-02-17T03:24:50.970Z,79.57
2023-02-17T03:29:53.274Z,79.49
2023-02-17T03:34:55.309Z,79.18
2023-02-17T03:39:57.303Z,78.94
2023-02-17T03:44:59.275Z,79.06
2023-02-17T03:50:01.338Z,78.98
2023-02-17T03:55:03.370Z,78.57
2023-02-17T04:00:07.582Z,78.75
2023-02-17T04:05:09.609Z,78.89
2023-02-17T04:10:11.697Z,78.95
2023-02-17T04:15:13.762Z,78.74
2023-02-17T04:20:15.789Z,79.30
2023-02-17T04:25:17.868Z,79.12
2023-02-17T04:30:19.999Z,79.26
2023-02-17T04:35:22.151Z,79.11
2023-02-17T04:40:24.194Z,79.17
2023-02-17T04:45:26.307Z,79.34
2023-02-17T04:50:28.667Z,78.99
2023-02-17T04:55:31.441Z,79.76
2023-02-17T05:00:33.454Z,79.47
2023-02-17T05:05:35.530Z,79.16
2023-02-17T05:10:37.575Z,79.42
2023-02-17T05:15:39.619Z,79.23
2023-02-17T05:20:41.844Z,79.43
2023-02-17T05:25:43.918Z,79.71
2023-02-17T05:30:45.934Z,80.25
2023-02-17T05:35:47.949Z,80.37
2023-02-17T05:40:50.634Z,80.36
2023-02-17T05:45:52.752Z,80.28
2023-02-17T05:50:54.733Z,80.44
2023-02-17T05:55:56.966Z,80.76
2023-02-17T06:00:59.028Z,80.71
2023-02-17T06:06:01.147Z,81.14
2023-02-17T06:11:03.255Z,81.36
2023-02-17T06:16:06.111Z,81.62
2023-02-17T06:21:08.250Z,81.09
2023-02-17T06:26:10.286Z,81.57
2023-02-17T06:31:12.605Z,81.61
2023-02-17T06:36:14.695Z,81.46
2023-02-17T06:41:16.672Z,81.65
2023-02-17T06:46:18.767Z,81.11
2023-02-17T06:51:20.811Z,81.16
2023-02-17T06:56:22.858Z,81.35
2023-02-17T07:01:26.673Z,81.12
2023-02-17T07:06:28.663Z,81.33
2023-02-17T07:11:33.672Z,82.49
2023-02-17T07:16:35.714Z,82.14
2023-02-17T07:21:37.763Z,82.09
2023-02-17T07:26:41.549Z,82.23
2023-02-17T07:31:43.715Z,82.34
2023-02-17T07:36:45.848Z,82.49
2023-02-17T07:41:47.933Z,82.32
2023-02-17T07:46:49.966Z,82.72
2023-02-17T07:51:51.986Z,82.64
2023-02-17T07:56:54.049Z,83.17
2023-02-17T08:01:56.127Z,83.47
2023-02-17T08:06:58.085Z,83.10
2023-02-17T08:12:18.712Z,83.12
2023-02-17T08:17:22.078Z,83.35
2023-02-17T08:22:24.084Z,83.79
2023-02-17T08:27:26.176Z,83.98
2023-02-17T08:32:28.273Z,84.09
2023-02-17T08:37:32.023Z,84.48
2023-02-17T08:42:34.050Z,85.10
2023-02-17T08:47:36.916Z,84.79
2023-02-17T08:52:38.957Z,84.53
2023-02-17T08:57:41.317Z,84.82
2023-02-17T09:02:45.439Z,85.59
2023-02-17T09:07:47.642Z,85.58
2023-02-17T09:12:49.882Z,84.63
2023-02-17T09:17:51.967Z,84.71
2023-02-17T09:22:54.082Z,85.35
2023-02-17T09:27:57.151Z,85.56
2023-02-17T09:33:00.890Z,85.32
2023-02-17T09:38:03.641Z,85.67
2023-02-17T09:43:05.696Z,86.03
2023-02-17T09:48:11.994Z,85.47
2023-02-17T09:53:35.644Z,85.65
2023-02-17T09:58:43.835Z,86.08
2023-02-17T10:03:52.449Z,85.74
2023-02-17T10:08:57.252Z,85.64
2023-02-17T10:14:06.756Z,86.20
2023-02-17T10:19:16.343Z,85.95
2023-02-17T10:24:18.448Z,86.15
2023-02-17T10:29:59.349Z,86.41
2023-02-17T10:35:24.359Z,86.56
2023-02-17T10:40:28.464Z,86.36
2023-02-17T10:45:41.617Z,85.99
2023-02-17T10:50:46.056Z,86.01
2023-02-17T10:55:54.821Z,86.25
2023-02-17T11:00:57.721Z,85.99
2023-02-17T11:06:16.609Z,86.00
2023-02-17T11:11:22.251Z,85.52
2023-02-17T11:16:38.699Z,85.40
2023-02-17T11:21:44.259Z,85.50
2023-02-17T11:27:00.436Z,85.69
2023-02-17T11:32:09.986Z,85.82
2023-02-17T11:37:11.996Z,85.37
2023-02-17T11:42:23.917Z,85.48
2023-02-17T11:48:07.275Z,85.54
2023-02-17T11:53:14.867Z,85.39
2023-02-17T11:58:43.138Z,85.60
2023-02-17T12:04:07.975Z,85.98
2023-02-17T12:09:28.740Z,86.02
2023-02-17T12:14:52.076Z,86.04
2023-02-17T12:19:59.810Z,85.87
2023-02-17T12:25:23.513Z,85.72
2023-02-17T12:30:52.880Z,86.01
2023-02-17T12:35:59.016Z,85.80
2023-02-17T12:41:10.454Z,86.14
2023-02-17T12:46:16.334Z,86.17
2023-02-17T12:51:26.584Z,86.49
2023-02-17T12:57:03.662Z,85.95
2023-02-17T13:02:11.120Z,86.33
2023-02-17T13:07:34.379Z,86.45
2023-02-17T13:12:40.996Z,86.49
2023-02-17T13:18:01.656Z,85.86
2023-02-17T13:23:07.443Z,86.37
2023-02-17T13:28:34.616Z,86.00
2023-02-17T13:33:44.082Z,85.86
2023-02-17T13:39:27.960Z,85.92
2023-02-17T13:44:41.309Z,86.04
2023-02-17T13:49:43.257Z,86.59
2023-02-17T13:55:03.391Z,86.18
2023-02-17T14:00:27.089Z,86.03
2023-02-17T14:05:41.021Z,86.19
2023-02-17T14:10:43.934Z,86.71
2023-02-17T14:16:00.268Z,85.76
2023-02-17T14:21:09.480Z,86.19
2023-02-17T14:26:27.175Z,85.97
2023-02-17T14:31:30.194Z,86.22
2023-02-17T14:36:36.038Z,86.20
2023-02-17T14:41:38.370Z,86.23
2023-02-17T14:46:40.678Z,86.42
2023-02-17T14:51:42.931Z,86.08
2023-02-17T14:57:08.452Z,86.24
2023-02-17T15:02:20.324Z,86.18
2023-02-17T15:07:23.484Z,86.61
2023-02-17T15:12:28.109Z,86.62
2023-02-17T15:17:30.726Z,86.46
2023-02-17T15:22:35.490Z,86.37
2023-02-17T15:27:38.108Z,86.52
2023-02-17T15:32:41.044Z,86.72
2023-02-17T15:37:44.005Z,86.10
2023-02-17T15:42:50.920Z,86.58
2023-02-17T15:48:07.587Z,86.22
2023-02-17T15:53:10.029Z,86.52
2023-02-17T15:58:19.381Z,86.71
2023-02-17T16:03:21.759Z,86.63
2023-02-17T16:08:24.264Z,86.00
2023-02-17T16:13:27.752Z,86.27
2023-02-17T16:18:31.690Z,86.28
2023-02-17T16:23:33.979Z,86.15
2023-02-17T16:28:36.326Z,86.80
2023-02-17T16:33:39.108Z,86.19
2023-02-17T16:38:42.457Z,86.52
2023-02-17T16:43:46.320Z,86.19
2023-02-17T16:48:48.992Z,86.37
2023-02-17T16:53:51.236Z,86.45
2023-02-17T16:58:53.417Z,86.52
2023-02-17T17:03:56.343Z,86.70
2023-02-17T17:08:59.009Z,86.33
2023-02-17T17:14:01.499Z,86.63
2023-02-17T17:19:04.362Z,86.20
2023-02-17T17:24:06.960Z,87.00
2023-02-17T17:29:13.075Z,86.95
2023-02-17T17:34:15.761Z,87.62
2023-02-17T17:39:22.620Z,87.37
2023-02-17T17:44:28.424Z,87.82
2023-02-17T17:49:32.417Z,88.19
2023-02-17T17:54:36.673Z,88.23
2023-02-17T17:59:39.507Z,88.17
2023-02-17T18:04:42.308Z,88.75
2023-02-17T18:09:44.827Z,88.87
2023-02-17T18:14:49.879Z,89.09
2023-02-17T18:19:55.791Z,89.00
2023-02-17T18:24:59.040Z,89.04
2023-02-17T18:30:02.709Z,89.02
2023-02-17T18:35:06.735Z,88.88
2023-02-17T18:40:14.679Z,89.02
2023-02-17T18:45:18.275Z,89.46
2023-02-17T18:50:21.313Z,88.87
2023-02-17T18:55:24.302Z,89.24
2023-02-17T19:00:27.793Z,89.25
2023-02-17T19:05:30.876Z,88.99
2023-02-17T19:10:34.163Z,89.31
2023-02-17T19:15:38.917Z,89.40
2023-02-17T19:20:45.022Z,89.34
2023-02-17T19:25:49.008Z,88.61
2023-02-17T19:30:52.032Z,89.31
2023-02-17T19:35:55.776Z,89.06
2023-02-17T19:41:00.851Z,89.26
2023-02-17T19:46:03.933Z,89.16
2023-02-17T19:51:09.097Z,89.20
2023-02-17T19:56:25.876Z,89.28
2023-02-17T20:01:32.205Z,89.63
2023-02-17T20:06:42.416Z,89.08
2023-02-17T20:11:47.212Z,88.87
2023-02-17T20:16:50.849Z,89.21
2023-02-17T20:21:55.276Z,88.85
2023-02-17T20:27:01.003Z,89.13
2023-02-17T20:32:04.503Z,88.82
2023-02-17T20:37:08.969Z,88.15
2023-02-17T20:42:12.025Z,88.17
2023-02-17T20:47:14.812Z,88.04
2023-02-17T20:52:17.616Z,87.54
2023-02-17T20:57:20.999Z,87.61
2023-02-17T21:02:24.297Z,87.81
2023-02-17T21:07:29.989Z,87.28
2023-02-17T21:12:32.775Z,87.38
2023-02-17T21:17:36.458Z,86.96
2023-02-17T21:22:39.682Z,87.06
2023-02-17T21:27:42.823Z,86.58
2023-02-17T21:32:45.370Z,86.67
2023-02-17T21:37:47.877Z,87.00
2023-02-17T21:43:08.528Z,87.09
2023-02-17T21:48:10.996Z,86.33
2023-02-17T21:53:13.390Z,86.86
2023-02-17T21:58:16.003Z,86.50
2023-02-17T22:03:18.458Z,86.55
2023-02-17T22:08:20.422Z,86.56
2023-02-17T22:13:22.601Z,86.40
2023-02-17T22:18:25.067Z,85.82
2023-02-17T22:23:27.343Z,85.72
2023-02-17T22:28:29.328Z,85.50
2023-02-17T22:33:31.529Z,86.00
2023-02-17T22:38:34.063Z,85.82
2023-02-17T22:43:38.046Z,85.54
2023-02-17T22:48:40.045Z,85.43
2023-02-17T22:53:42.944Z,84.60
2023-02-17T22:58:45.108Z,84.13
2023-02-17T23:03:52.965Z,84.57
2023-02-17T23:08:57.004Z,83.73
2023-02-17T23:13:58.970Z,84.11
2023-02-17T23:19:01.429Z,83.62
2023-02-17T23:24:03.369Z,83.44
2023-02-17T23:29:05.542Z,83.12
2023-02-17T23:34:08.392Z,83.41
2023-02-17T23:39:11.048Z,83.17
2023-02-17T23:44:14.186Z,83.05
2023-02-17T23:49:17.766Z,82.64
2023-02-17T23:54:19.899Z,82.76
2023-02-17T23:59:22.043Z,82.73
